Time;durP1;ratioP1;P1;durP2;ratioP2;P2;SDS_P1;SDS_P2;PMS_P1;PMS_P2;Temp;Humidity;BMP_temperature;BMP_pressure;BME280_temperature;BME280_humidity;BME280_pressure;Samples;Min_cycle;Max_cycle;Signal;HPM_P1;HPM_P2
2021/07/10 00:02:06;;;;;;;;;8.25;7.75;;;;;23.89;44.56;101413.22;5078823;27;45567;-59
2021/07/10 00:04:32;;;;;;;;;9.25;8.75;;;;;23.90;44.68;101416.69;5078740;28;45321;-60
2021/07/10 00:06:58;;;;;;;;;9.25;9.25;;;;;23.89;44.48;101413.22;5078275;27;45382;-57
2021/07/10 00:09:23;;;;;;;;;10.25;9.00;;;;;23.89;44.69;101410.56;5078739;27;45489;-58
2021/07/10 00:11:49;;;;;;;;;9.50;8.25;;;;;23.89;45.07;101412.34;5078909;27;45284;-60
2021/07/10 00:14:14;;;;;;;;;10.25;8.75;;;;;23.88;44.81;101410.63;5078264;27;46246;-55
2021/07/10 00:16:40;;;;;;;;;7.25;7.25;;;;;23.87;44.69;101408.94;5078381;27;45222;-60
2021/07/10 00:19:05;;;;;;;;;8.00;8.00;;;;;23.88;45.06;101419.44;5078111;27;50482;-50
2021/07/10 00:21:31;;;;;;;;;7.50;7.50;;;;;23.89;44.63;101414.97;5077669;28;45635;-51
2021/07/10 00:23:56;;;;;;;;;8.00;7.50;;;;;23.89;44.76;101412.34;5076770;27;46302;-51
2021/07/10 00:26:22;;;;;;;;;9.75;9.75;;;;;23.86;44.67;101404.59;5078044;27;45327;-50
2021/07/10 00:28:47;;;;;;;;;9.00;9.00;;;;;23.88;44.89;101402.69;5076818;28;45292;-49
2021/07/10 00:31:13;;;;;;;;;9.00;9.00;;;;;23.88;45.00;101397.41;5078313;28;45519;-49
2021/07/10 00:33:38;;;;;;;;;8.50;8.00;;;;;23.89;45.22;101383.22;5077930;28;45207;-50
2021/07/10 00:36:04;;;;;;;;;12.00;10.00;;;;;23.89;44.70;101383.22;5078319;28;45228;-48
2021/07/10 00:38:29;;;;;;;;;10.25;9.25;;;;;23.89;44.79;101386.75;5076573;27;45485;-48
2021/07/10 00:40:54;;;;;;;;;10.25;8.25;;;;;23.88;45.02;101382.38;5078196;27;45335;-49
2021/07/10 00:43:21;;;;;;;;;9.25;9.00;;;;;23.88;44.94;101376.22;5077802;28;45794;-48
2021/07/10 00:45:47;;;;;;;;;8.75;8.50;;;;;23.89;45.24;101373.50;5077781;27;45378;-48
2021/07/10 00:48:12;;;;;;;;;10.00;7.50;;;;;23.89;44.94;101369.97;5077850;28;45547;-52
2021/07/10 00:50:38;;;;;;;;;11.00;8.50;;;;;23.89;44.90;101376.16;5076798;28;45373;-57
2021/07/10 00:53:03;;;;;;;;;7.75;7.00;;;;;23.89;45.25;101372.63;5077793;27;46236;-53
2021/07/10 00:55:29;;;;;;;;;7.75;7.00;;;;;23.89;44.87;101377.94;5077565;28;45365;-49
2021/07/10 00:57:55;;;;;;;;;9.00;7.25;;;;;23.89;45.08;101367.34;5077741;27;45283;-47
2021/07/10 01:00:24;;;;;;;;;8.50;7.50;;;;;23.89;44.89;101362.91;5077720;27;45452;-54
2021/07/10 01:02:51;;;;;;;;;10.25;9.00;;;;;23.89;45.14;101356.75;5077465;28;45938;-49
2021/07/10 01:05:20;;;;;;;;;10.00;9.75;;;;;23.89;44.97;101354.97;5077659;27;45954;-49
2021/07/10 01:07:45;;;;;;;;;9.50;8.50;;;;;23.89;45.05;101354.97;5077323;27;45400;-47
2021/07/10 01:10:12;;;;;;;;;13.75;10.00;;;;;23.88;45.29;101360.34;5077729;27;45219;-47
2021/07/10 01:12:39;;;;;;;;;10.50;10.25;;;;;23.88;45.17;101355.03;5077414;27;46484;-51
2021/07/10 01:15:07;;;;;;;;;10.75;8.50;;;;;23.86;45.27;101341.06;5077628;27;45697;-55
2021/07/10 01:17:32;;;;;;;;;11.00;9.50;;;;;23.87;45.36;101342.75;5077878;27;46028;-60
2021/07/10 01:20:10;;;;;;;;;7.75;7.75;;;;;23.86;45.59;101335.78;5077180;28;45402;-47
2021/07/10 01:22:37;;;;;;;;;9.25;9.25;;;;;23.87;44.98;101332.16;5077260;27;46844;-53
2021/07/10 01:25:04;;;;;;;;;11.25;10.50;;;;;23.85;45.41;101326.97;5077208;27;45344;-52
2021/07/10 01:27:29;;;;;;;;;9.00;9.00;;;;;23.85;45.33;101320.84;5077282;27;45521;-51
2021/07/10 01:29:55;;;;;;;;;9.00;8.25;;;;;23.86;45.29;101314.59;5077241;28;45344;-48
2021/07/10 01:32:21;;;;;;;;;9.25;8.50;;;;;23.85;44.90;101316.38;5077061;27;45325;-47
2021/07/10 01:34:48;;;;;;;;;8.25;8.25;;;;;23.84;45.22;101306.75;5076879;28;45451;-48
2021/07/10 01:37:16;;;;;;;;;9.75;9.75;;;;;23.83;45.03;101305.03;5077284;27;45328;-49
2021/07/10 01:39:43;;;;;;;;;10.50;10.00;;;;;23.85;45.37;101302.31;5077186;27;45467;-49
2021/07/10 01:42:10;;;;;;;;;9.25;9.25;;;;;23.85;45.35;101291.72;5076960;27;45298;-48
2021/07/10 01:44:35;;;;;;;;;10.50;10.00;;;;;23.85;45.53;101289.91;5077290;27;45268;-49
2021/07/10 01:47:01;;;;;;;;;8.75;8.25;;;;;23.84;45.38;101285.56;5076894;27;45329;-47
2021/07/10 01:49:26;;;;;;;;;8.25;8.25;;;;;23.85;45.27;101284.63;5077071;28;45436;-51
2021/07/10 01:51:51;;;;;;;;;8.50;7.50;;;;;23.84;45.37;101279.44;5076773;28;45376;-50
2021/07/10 01:54:17;;;;;;;;;9.25;7.75;;;;;23.84;45.35;101274.13;5076598;28;48867;-58
2021/07/10 01:56:42;;;;;;;;;10.75;8.75;;;;;23.83;44.97;101273.28;5076891;27;45452;-48
2021/07/10 01:59:07;;;;;;;;;7.50;7.25;;;;;23.78;45.11;101259.50;5077510;28;45464;-52
2021/07/10 02:01:33;;;;;;;;;8.00;7.50;;;;;23.84;45.15;101280.28;5076656;27;45317;-51
2021/07/10 02:04:00;;;;;;;;;9.00;8.00;;;;;23.84;45.21;101269.69;5076753;28;45381;-53
2021/07/10 02:06:25;;;;;;;;;10.25;9.50;;;;;23.84;45.18;101266.19;5076781;27;45237;-56
2021/07/10 02:08:51;;;;;;;;;8.00;7.25;;;;;23.83;44.78;101267.13;5076995;27;45488;-51
2021/07/10 02:11:16;;;;;;;;;9.25;8.00;;;;;23.83;45.01;101259.19;5076590;28;45354;-49
2021/07/10 02:13:42;;;;;;;;;6.50;6.50;;;;;23.82;45.49;101258.34;5076601;27;45381;-46
2021/07/10 02:16:08;;;;;;;;;9.25;9.25;;;;;23.83;45.38;101251.25;5077050;27;45345;-54
2021/07/10 02:18:34;;;;;;;;;8.75;8.00;;;;;23.83;45.35;101259.19;5076886;28;45427;-52
2021/07/10 02:21:00;;;;;;;;;9.25;8.75;;;;;23.83;45.46;101261.84;5080088;27;45293;-52
2021/07/10 02:23:25;;;;;;;;;6.75;6.75;;;;;23.82;45.14;101260.16;5080130;27;45341;-54
2021/07/10 02:25:50;;;;;;;;;11.00;9.00;;;;;23.82;45.58;101254.84;5080081;27;45668;-60
2021/07/10 02:28:16;;;;;;;;;12.00;9.00;;;;;23.80;44.80;101252.31;5080352;27;45377;-52
2021/07/10 02:30:41;;;;;;;;;8.75;8.75;;;;;23.82;45.24;101252.22;5079794;27;45944;-49
2021/07/10 02:33:07;;;;;;;;;11.00;8.50;;;;;23.80;45.50;101248.81;5080105;27;45432;-55
2021/07/10 02:35:33;;;;;;;;;10.25;9.75;;;;;23.83;45.00;101251.25;5080123;27;45428;-51
2021/07/10 02:37:59;;;;;;;;;8.00;7.25;;;;;23.82;45.55;101246.91;5080048;27;45309;-50
2021/07/10 02:40:25;;;;;;;;;9.00;9.00;;;;;23.81;45.52;101242.56;5079868;27;46548;-56
2021/07/10 02:42:51;;;;;;;;;11.75;10.50;;;;;23.81;45.47;101248.72;5078504;28;45284;-52
2021/07/10 02:45:18;;;;;;;;;10.75;9.25;;;;;23.80;45.30;101243.50;5079814;27;45246;-52
2021/07/10 02:47:44;;;;;;;;;10.25;9.00;;;;;23.81;45.37;101245.22;5079893;27;45422;-59
2021/07/10 02:50:12;;;;;;;;;9.50;8.25;;;;;23.81;45.39;101242.56;5079994;27;46159;-46
2021/07/10 02:52:38;;;;;;;;;9.25;9.25;;;;;23.81;45.60;101234.63;5079867;27;45334;-47
2021/07/10 02:55:05;;;;;;;;;7.75;7.75;;;;;23.80;45.50;101224.97;5079692;27;45450;-54
2021/07/10 02:57:31;;;;;;;;;9.25;9.25;;;;;23.81;45.25;101226.69;5079902;27;45289;-55
2021/07/10 02:59:56;;;;;;;;;9.00;9.00;;;;;23.80;45.50;101224.97;5079377;28;45253;-49
2021/07/10 03:02:22;;;;;;;;;9.00;9.00;;;;;23.80;45.27;101227.63;5079537;27;45239;-49
2021/07/10 03:04:47;;;;;;;;;11.50;8.75;;;;;23.78;45.29;101211.84;5079723;27;45330;-49
2021/07/10 03:07:12;;;;;;;;;8.50;8.50;;;;;23.80;45.63;101217.91;5079602;28;45393;-49
2021/07/10 03:09:38;;;;;;;;;9.50;9.00;;;;;23.79;45.38;101208.25;5079619;28;46324;-51
2021/07/10 03:12:05;;;;;;;;;11.25;9.50;;;;;23.79;45.75;101210.91;5079245;28;45231;-50
2021/07/10 03:14:31;;;;;;;;;8.00;6.75;;;;;23.80;45.79;101209.09;5079366;27;45433;-47
2021/07/10 03:16:56;;;;;;;;;7.25;7.25;;;;;23.79;45.38;101205.63;5079471;27;45430;-48
2021/07/10 03:19:22;;;;;;;;;11.00;9.00;;;;;23.79;45.32;101208.25;5079113;27;46434;-50
2021/07/10 03:21:48;;;;;;;;;7.25;7.25;;;;;23.80;45.45;101209.09;5079183;27;45416;-49
2021/07/10 03:24:14;;;;;;;;;8.50;8.50;;;;;23.79;45.63;101208.25;5079563;27;45362;-59
2021/07/10 03:26:39;;;;;;;;;7.25;7.25;;;;;23.77;45.64;101205.69;5079794;27;45540;-61
2021/07/10 03:29:05;;;;;;;;;8.00;8.00;;;;;23.78;45.53;101207.41;5077729;28;46081;-58
2021/07/10 03:31:30;;;;;;;;;10.25;9.25;;;;;23.77;45.34;101200.41;5077612;27;45282;-59
2021/07/10 03:33:55;;;;;;;;;11.75;9.75;;;;;23.73;45.79;101192.75;5079191;28;45235;-57
2021/07/10 03:36:21;;;;;;;;;7.75;7.75;;;;;23.77;45.58;101200.41;5079364;28;45297;-55
2021/07/10 03:38:46;;;;;;;;;12.00;9.25;;;;;23.78;45.14;101194.16;5078769;27;46037;-53
2021/07/10 03:41:14;;;;;;;;;9.50;8.00;;;;;23.78;45.50;101195.97;5079188;27;45190;-57
2021/07/10 03:43:40;;;;;;;;;8.75;8.75;;;;;23.72;45.55;101183.97;5079429;27;45528;-58
2021/07/10 03:46:05;;;;;;;;;9.25;8.00;;;;;23.77;45.47;101194.28;5079078;27;45443;-56
2021/07/10 03:48:31;;;;;;;;;11.50;9.25;;;;;23.77;45.79;101203.03;5078667;27;45369;-53
2021/07/10 03:50:57;;;;;;;;;10.00;7.25;;;;;23.77;45.58;101205.69;5078811;27;45364;-50
2021/07/10 03:53:23;;;;;;;;;8.00;8.00;;;;;23.76;45.60;101196.06;5078864;27;45341;-56
2021/07/10 03:55:49;;;;;;;;;11.25;9.00;;;;;23.76;45.80;101192.56;5077588;28;45578;-46
2021/07/10 03:58:14;;;;;;;;;11.00;9.75;;;;;23.75;45.61;101199.66;5078802;27;47067;-49
2021/07/10 04:00:40;;;;;;;;;8.00;8.00;;;;;23.75;45.39;101202.31;5078451;27;45335;-51
2021/07/10 04:03:06;;;;;;;;;10.50;8.75;;;;;23.73;45.31;101198.03;5077381;28;45335;-52
2021/07/10 04:05:32;;;;;;;;;8.50;8.50;;;;;23.76;45.58;101197.84;5078827;27;45301;-50
2021/07/10 04:07:57;;;;;;;;;9.75;7.50;;;;;23.76;45.23;101196.06;5076798;28;46655;-52
2021/07/10 04:10:22;;;;;;;;;6.75;6.75;;;;;23.76;45.77;101193.41;5078392;28;45339;-49
2021/07/10 04:12:48;;;;;;;;;8.50;8.00;;;;;23.76;45.65;101201.34;5078462;27;45253;-48
2021/07/10 04:15:17;;;;;;;;;8.75;8.75;;;;;23.76;45.22;101189.91;5078801;27;45144;-47
2021/07/10 04:17:43;;;;;;;;;11.00;9.25;;;;;23.77;45.42;101199.56;5078640;27;45810;-46
2021/07/10 04:20:11;;;;;;;;;9.00;9.00;;;;;23.77;45.57;101199.56;5078253;27;45262;-50
2021/07/10 04:22:38;;;;;;;;;10.00;8.50;;;;;23.76;45.49;101197.84;5077039;28;45351;-53
2021/07/10 04:25:05;;;;;;;;;12.00;9.25;;;;;23.75;45.67;101202.31;5078448;27;45191;-54
2021/07/10 04:27:32;;;;;;;;;10.00;9.00;;;;;23.75;45.79;101191.72;5077795;27;46965;-61
2021/07/10 04:29:58;;;;;;;;;9.00;9.00;;;;;23.74;45.86;101189.16;5078063;27;45324;-51
2021/07/10 04:32:23;;;;;;;;;8.50;8.50;;;;;23.75;45.69;101196.16;5078131;27;45366;-53
2021/07/10 04:34:48;;;;;;;;;12.50;8.00;;;;;23.75;45.52;101183.78;5077043;28;45386;-52
2021/07/10 04:37:13;;;;;;;;;10.00;8.00;;;;;23.75;45.84;101188.22;5078302;28;45334;-57
2021/07/10 04:39:39;;;;;;;;;9.00;8.50;;;;;23.75;45.65;101183.78;5077886;27;45492;-56
2021/07/10 04:42:04;;;;;;;;;7.75;7.75;;;;;23.75;46.01;101193.50;5077692;27;45417;-59
2021/07/10 04:44:31;;;;;;;;;10.75;9.00;;;;;23.75;45.87;101197.03;5078283;27;45479;-55
2021/07/10 04:46:56;;;;;;;;;10.00;10.00;;;;;23.74;45.62;101191.81;5077762;28;46382;-58
2021/07/10 04:49:22;;;;;;;;;9.00;9.00;;;;;23.74;45.96;101200.63;5077841;27;45278;-55
2021/07/10 04:51:47;;;;;;;;;7.00;7.00;;;;;23.74;46.00;101195.31;5078220;28;45326;-58
2021/07/10 04:54:12;;;;;;;;;9.25;9.00;;;;;23.75;45.62;101197.03;5077768;28;45249;-56
2021/07/10 04:56:38;;;;;;;;;9.75;9.50;;;;;23.74;45.82;101195.31;5077585;27;45314;-57
2021/07/10 04:59:03;;;;;;;;;10.75;8.00;;;;;23.75;46.12;101199.66;5077627;28;45457;-61
2021/07/10 05:01:28;;;;;;;;;9.50;9.00;;;;;23.74;46.21;101203.25;5076557;28;45349;-60
2021/07/10 05:03:54;;;;;;;;;9.00;8.50;;;;;23.71;45.98;101200.81;5078031;27;45536;-60
2021/07/10 05:06:19;;;;;;;;;8.25;8.25;;;;;23.67;46.00;101199.28;5077531;27;45213;-54
2021/07/10 05:08:44;;;;;;;;;10.00;10.00;;;;;23.63;46.02;101203.94;5078028;27;45575;-58
2021/07/10 05:11:10;;;;;;;;;8.00;8.00;;;;;23.66;46.28;101208.16;5077717;27;45598;-61
2021/07/10 05:13:36;;;;;;;;;10.00;8.00;;;;;23.62;46.26;101207.50;5077719;28;45552;-61
2021/07/10 05:16:01;;;;;;;;;8.75;8.75;;;;;23.59;46.27;101204.22;5077435;27;46423;-62
2021/07/10 05:18:26;;;;;;;;;8.25;8.25;;;;;23.62;46.12;101207.50;5077432;27;45357;-63
2021/07/10 05:20:52;;;;;;;;;10.50;7.75;;;;;23.62;46.27;101204.88;5077615;27;45306;-59
2021/07/10 05:23:17;;;;;;;;;8.00;8.00;;;;;23.62;46.29;101202.22;5078068;27;45559;-60
2021/07/10 05:25:43;;;;;;;;;8.00;7.00;;;;;23.63;46.34;101209.22;5077117;27;46431;-58
2021/07/10 05:28:08;;;;;;;;;8.75;7.75;;;;;23.66;46.11;101213.47;5077243;27;45353;-57
2021/07/10 05:30:34;;;;;;;;;8.00;8.00;;;;;23.67;46.22;101209.88;5077266;27;45311;-51
2021/07/10 05:32:59;;;;;;;;;10.25;7.75;;;;;23.67;45.86;101203.75;5077403;27;45346;-51
2021/07/10 05:35:26;;;;;;;;;10.00;8.50;;;;;23.70;46.16;101207.03;5077009;27;45392;-52
2021/07/10 05:37:53;;;;;;;;;7.00;6.75;;;;;23.71;46.33;101206.09;5076993;28;45326;-49
2021/07/10 05:40:19;;;;;;;;;7.75;7.75;;;;;23.71;46.53;101195.50;5077484;27;45445;-52
2021/07/10 05:42:49;;;;;;;;;12.25;10.00;;;;;23.72;46.15;101202.50;5077381;27;45548;-49
2021/07/10 05:45:16;;;;;;;;;11.00;9.25;;;;;23.72;46.31;101194.56;5076766;27;46061;-53
2021/07/10 05:47:42;;;;;;;;;10.50;10.50;;;;;23.73;46.07;101198.91;5076786;27;45669;-52
2021/07/10 05:50:08;;;;;;;;;9.50;9.00;;;;;23.73;45.93;101188.34;5076927;28;45413;-50
2021/07/10 05:52:34;;;;;;;;;10.75;9.00;;;;;23.74;46.04;101176.81;5077221;27;45536;-52
2021/07/10 05:54:59;;;;;;;;;7.00;7.00;;;;;23.75;46.00;101169.69;5075757;27;46180;-51
2021/07/10 05:57:24;;;;;;;;;9.75;9.00;;;;;23.76;46.33;101174.03;5076746;27;45363;-53
2021/07/10 05:59:50;;;;;;;;;9.50;9.25;;;;;23.76;46.16;101174.88;5077163;28;45385;-50
2021/07/10 06:02:15;;;;;;;;;9.25;9.25;;;;;23.77;46.35;101168.63;5076933;27;45547;-51
2021/07/10 06:04:40;;;;;;;;;8.00;8.00;;;;;23.78;46.06;101174.81;5076500;28;45391;-51
2021/07/10 06:07:09;;;;;;;;;12.00;9.50;;;;;23.77;45.92;101171.28;5076562;28;45381;-52
2021/07/10 06:09:35;;;;;;;;;12.00;8.75;;;;;23.78;45.93;101165.03;5076621;27;45349;-49
2021/07/10 06:12:00;;;;;;;;;9.00;9.00;;;;;23.79;46.06;101176.50;5076902;27;45268;-49
2021/07/10 06:14:26;;;;;;;;;8.75;8.00;;;;;23.78;45.87;101167.69;5076439;27;46004;-50
2021/07/10 06:16:52;;;;;;;;;9.00;7.75;;;;;23.81;46.00;101166.66;5076807;28;45739;-58
2021/07/10 06:19:17;;;;;;;;;11.25;10.00;;;;;23.80;46.10;101164.09;5077005;27;45348;-59
2021/07/10 06:21:43;;;;;;;;;7.00;7.00;;;;;23.83;46.28;101166.56;5075440;28;45681;-50
2021/07/10 06:24:08;;;;;;;;;6.00;6.00;;;;;23.82;46.55;101164.84;5076248;28;45311;-52
2021/07/10 06:26:33;;;;;;;;;9.50;9.25;;;;;23.83;46.23;101155.97;5076199;27;47140;-53
2021/07/10 06:29:00;;;;;;;;;6.75;6.75;;;;;23.85;46.20;101165.50;5076371;27;45331;-51
2021/07/10 06:31:26;;;;;;;;;6.00;5.25;;;;;23.84;46.26;101169.09;5076715;27;45516;-52
2021/07/10 06:33:51;;;;;;;;;8.00;8.00;;;;;23.85;45.85;101175.25;5076471;28;45241;-56
2021/07/10 06:36:17;;;;;;;;;12.25;9.75;;;;;23.87;46.05;101168.03;5076130;28;45362;-56
2021/07/10 06:38:42;;;;;;;;;8.00;7.25;;;;;23.84;46.29;101162.97;5076156;28;45362;-50
2021/07/10 06:41:08;;;;;;;;;9.25;8.00;;;;;23.87;46.00;101162.75;5076278;27;45385;-54
2021/07/10 06:43:33;;;;;;;;;9.00;8.50;;;;;23.87;46.25;101163.63;5076211;27;45939;-51
2021/07/10 06:45:58;;;;;;;;;6.50;6.50;;;;;23.89;46.22;101150.28;5076306;27;45466;-52
2021/07/10 06:48:24;;;;;;;;;8.50;8.00;;;;;23.88;45.98;101157.38;5076336;27;45772;-49
2021/07/10 06:50:51;;;;;;;;;8.75;8.50;;;;;23.90;45.99;101151.97;5075437;28;45584;-51
2021/07/10 06:53:22;;;;;;;;;7.25;6.00;;;;;23.89;45.65;101151.13;5075836;27;45402;-53
2021/07/10 06:55:51;;;;;;;;;9.50;9.00;;;;;23.88;45.78;101149.44;5075819;27;45311;-51
2021/07/10 06:58:17;;;;;;;;;8.75;7.25;;;;;23.89;46.18;101145.84;5076247;27;45252;-52
2021/07/10 07:00:42;;;;;;;;;7.50;7.25;;;;;23.91;45.84;101156.31;5076408;27;45342;-50
2021/07/10 07:03:08;;;;;;;;;5.50;5.25;;;;;23.88;45.60;101144.13;5075939;27;46143;-54
2021/07/10 07:05:33;;;;;;;;;9.00;6.00;;;;;23.89;45.61;101156.44;5077346;27;45508;-49
2021/07/10 07:07:59;;;;;;;;;7.00;6.00;;;;;23.87;45.54;101146.88;5079467;27;45239;-52
2021/07/10 07:10:24;;;;;;;;;9.00;4.75;;;;;23.86;45.11;101155.78;5079929;27;45342;-52
2021/07/10 07:12:49;;;;;;;;;7.25;6.00;;;;;23.84;45.05;101152.38;5079180;27;46123;-49
2021/07/10 07:15:15;;;;;;;;;8.75;7.00;;;;;23.82;45.59;101138.38;5077964;28;45616;-51
2021/07/10 07:17:41;;;;;;;;;6.00;6.00;;;;;23.79;45.65;101139.44;5079490;28;45511;-50
2021/07/10 07:20:09;;;;;;;;;7.25;7.00;;;;;23.80;45.34;101149.09;5078319;28;45421;-49
2021/07/10 07:22:35;;;;;;;;;7.50;7.00;;;;;23.78;45.54;101143.88;5079063;27;46188;-49
2021/07/10 07:25:03;;;;;;;;;7.25;7.25;;;;;23.80;45.65;101140.28;5079213;27;45248;-57
2021/07/10 07:27:29;;;;;;;;;6.50;6.50;;;;;23.77;45.17;101141.34;5079205;28;45309;-52
2021/07/10 07:29:54;;;;;;;;;7.25;6.75;;;;;23.77;45.44;101138.69;5079569;28;45310;-52
2021/07/10 07:32:19;;;;;;;;;6.50;6.50;;;;;23.76;45.53;101135.19;5079023;27;46366;-55
2021/07/10 07:34:48;;;;;;;;;6.00;6.00;;;;;23.76;45.75;101129.88;5077838;28;45659;-51
2021/07/10 07:37:15;;;;;;;;;6.00;6.00;;;;;23.77;45.39;101136.88;5077666;28;45410;-50
2021/07/10 07:39:41;;;;;;;;;5.75;5.75;;;;;23.79;45.46;101128.88;5079006;27;45612;-53
2021/07/10 07:42:06;;;;;;;;;7.25;6.75;;;;;23.76;45.51;101127.25;5078873;27;45498;-50
2021/07/10 07:44:32;;;;;;;;;6.00;6.00;;;;;23.78;45.39;101128.00;5078801;27;45317;-53
2021/07/10 07:46:57;;;;;;;;;5.25;5.25;;;;;23.81;45.04;101137.56;5078740;27;45284;-53
2021/07/10 07:49:22;;;;;;;;;4.00;4.00;;;;;23.81;44.98;101131.41;5079277;27;45657;-51
2021/07/10 07:51:48;;;;;;;;;5.50;4.00;;;;;23.81;45.14;101131.41;5078437;28;46017;-53
2021/07/10 07:54:13;;;;;;;;;7.25;5.25;;;;;23.81;44.86;101121.69;5078886;28;45410;-51
2021/07/10 07:56:38;;;;;;;;;4.75;4.75;;;;;23.80;44.49;101124.41;5078735;28;45223;-55
2021/07/10 07:59:05;;;;;;;;;3.25;3.25;;;;;23.80;44.70;101127.06;5077642;28;45641;-56
2021/07/10 08:01:31;;;;;;;;;3.00;3.00;;;;;23.78;44.41;101122.69;5078445;27;45695;-57
2021/07/10 08:03:56;;;;;;;;;5.00;5.00;;;;;23.78;44.68;101122.69;5078868;27;45448;-52
2021/07/10 08:06:21;;;;;;;;;5.25;4.00;;;;;23.80;44.28;101127.06;5078739;27;45817;-57
2021/07/10 08:08:47;;;;;;;;;4.00;4.00;;;;;23.79;43.93;101131.50;5078587;28;45776;-59
2021/07/10 08:11:12;;;;;;;;;3.75;3.75;;;;;23.76;43.91;101123.75;5078194;27;46170;-51
2021/07/10 08:13:38;;;;;;;;;3.50;3.50;;;;;23.72;43.57;101125.75;5078480;27;45393;-50
2021/07/10 08:16:04;;;;;;;;;3.50;3.50;;;;;23.68;43.77;101123.41;5078402;27;45476;-52
2021/07/10 08:18:30;;;;;;;;;4.00;3.00;;;;;23.64;43.54;101122.75;5076737;27;45509;-49
2021/07/10 08:20:56;;;;;;;;;4.00;3.00;;;;;23.60;43.47;101118.59;5078266;27;46309;-57
2021/07/10 08:23:21;;;;;;;;;4.00;4.00;;;;;23.59;43.47;101122.19;5078250;28;45303;-58
2021/07/10 08:25:46;;;;;;;;;7.00;5.00;;;;;23.54;43.57;101118.97;5078240;27;45386;-54
2021/07/10 08:28:13;;;;;;;;;3.00;3.00;;;;;23.52;43.26;101116.44;5077155;28;45539;-50
2021/07/10 08:30:38;;;;;;;;;4.25;3.50;;;;;23.50;43.21;101118.34;5076739;28;48422;-50
2021/07/10 08:33:04;;;;;;;;;6.00;6.00;;;;;23.47;43.60;101102.69;5078077;28;45259;-58
2021/07/10 08:35:29;;;;;;;;;4.25;3.75;;;;;23.50;43.58;101106.91;5076971;27;45419;-52
2021/07/10 08:37:54;;;;;;;;;4.25;3.75;;;;;23.49;43.74;101106.03;5078656;27;45204;-55
2021/07/10 08:40:21;;;;;;;;;5.75;5.75;;;;;23.50;43.94;101112.22;5078046;27;46122;-59
2021/07/10 08:42:47;;;;;;;;;8.50;6.00;;;;;23.50;43.62;101104.28;5073402;28;45344;-52
2021/07/10 08:45:14;;;;;;;;;5.50;4.75;;;;;23.51;43.93;101103.31;5077349;27;45430;-50
2021/07/10 08:47:41;;;;;;;;;5.50;4.50;;;;;23.50;43.86;101112.22;5077801;27;45369;-49
2021/07/10 08:50:13;;;;;;;;;6.00;6.00;;;;;23.50;43.78;101112.22;5077656;27;46784;-46
2021/07/10 08:52:39;;;;;;;;;7.25;4.50;;;;;23.49;43.50;101116.63;5077812;27;45971;-49
2021/07/10 08:55:08;;;;;;;;;5.75;4.00;;;;;23.49;43.63;101111.34;5077408;27;45389;-56
2021/07/10 08:57:35;;;;;;;;;2.75;2.00;;;;;23.51;43.32;101119.19;5078032;27;45358;-52
2021/07/10 09:00:25;;;;;;;;;2.25;2.25;;;;;23.50;43.10;101122.78;5077633;27;46208;-55
2021/07/10 09:02:53;;;;;;;;;3.00;3.00;;;;;23.50;42.89;101128.06;5077202;27;45682;-53
2021/07/10 09:05:19;;;;;;;;;3.75;3.75;;;;;23.50;42.88;101138.66;5077629;27;45407;-55
2021/07/10 09:08:20;;;;;;;;;2.50;2.50;;;;;23.49;42.95;101127.22;5077876;27;45401;-51
2021/07/10 09:10:56;;;;;;;;;2.00;2.00;;;;;23.48;42.96;101130.84;5077733;27;46548;-52
2021/07/10 09:13:32;;;;;;;;;3.00;3.00;;;;;23.49;42.91;101139.59;5077371;27;45434;-54
2021/07/10 09:16:10;;;;;;;;;2.75;2.75;;;;;23.50;42.79;101149.25;5077796;27;45230;-56
2021/07/10 09:18:53;;;;;;;;;3.50;3.50;;;;;23.51;42.89;101140.38;5077788;27;45413;-54
2021/07/10 09:21:37;;;;;;;;;3.00;3.00;;;;;23.52;43.48;101152.66;5077222;27;47191;-51
2021/07/10 09:24:05;;;;;;;;;4.25;3.75;;;;;23.50;43.63;101143.94;5077437;28;45260;-52
2021/07/10 09:26:31;;;;;;;;;3.00;3.00;;;;;23.51;43.65;101137.72;5077787;27;45343;-50
2021/07/10 09:29:13;;;;;;;;;3.25;3.25;;;;;23.53;43.45;101131.38;5077327;27;45256;-51
2021/07/10 09:31:42;;;;;;;;;4.00;4.00;;;;;23.55;43.76;101136.56;5077207;28;47234;-51
2021/07/10 09:34:10;;;;;;;;;3.00;3.00;;;;;23.55;44.14;101131.25;5077055;28;45748;-54
2021/07/10 09:36:36;;;;;;;;;3.25;3.25;;;;;23.56;43.74;101123.25;5077363;28;45258;-55
2021/07/10 09:39:10;;;;;;;;;2.00;2.00;;;;;23.57;44.01;101113.50;5077487;28;45238;-52
2021/07/10 09:41:35;;;;;;;;;4.25;3.25;;;;;23.58;44.08;101116.06;5077069;28;45297;-57
2021/07/10 09:44:07;;;;;;;;;5.50;4.00;;;;;23.59;44.37;101115.09;5075978;28;45301;-58
2021/07/10 09:46:32;;;;;;;;;4.75;4.00;;;;;23.60;44.23;101108.03;5077039;28;45476;-52
2021/07/10 09:48:58;;;;;;;;;4.00;4.00;;;;;23.61;44.63;101101.78;5077471;28;45431;-59
2021/07/10 09:51:25;;;;;;;;;4.25;4.25;;;;;23.62;44.06;101092.91;5076833;28;46158;-55
2021/07/10 09:54:09;;;;;;;;;4.50;3.00;;;;;23.60;44.83;101092.16;5076963;28;45339;-55
2021/07/10 09:56:37;;;;;;;;;6.50;5.50;;;;;23.63;44.66;101097.25;5077040;28;45347;-57
2021/07/10 09:59:18;;;;;;;;;3.50;3.50;;;;;23.64;44.82;101104.25;5077382;28;45585;-48
2021/07/10 10:01:44;;;;;;;;;4.00;3.00;;;;;23.66;44.56;101112.06;5076726;28;47000;-58
2021/07/10 10:04:39;;;;;;;;;2.75;2.75;;;;;23.65;44.67;101111.19;5076749;28;45748;-57
2021/07/10 10:07:14;;;;;;;;;2.50;2.00;;;;;23.65;44.69;101097.13;5059336;28;45332;-54
2021/07/10 10:09:40;;;;;;;;;2.25;2.25;;;;;23.66;44.90;101091.72;5076928;28;45410;-57
2021/07/10 10:12:14;;;;;;;;;3.00;3.00;;;;;23.67;44.79;101080.22;5076819;28;45682;-55
2021/07/10 10:14:43;;;;;;;;;4.50;4.50;;;;;23.67;44.70;101085.50;5076706;28;45933;-52
2021/07/10 10:17:09;;;;;;;;;3.00;3.00;;;;;23.69;44.59;101096.84;5076924;27;45441;-54
2021/07/10 10:19:35;;;;;;;;;4.00;4.00;;;;;23.68;44.46;101102.25;5076820;28;45327;-55
2021/07/10 10:22:04;;;;;;;;;3.25;3.00;;;;;23.70;44.52;101101.19;5076689;28;46346;-52
2021/07/10 10:24:30;;;;;;;;;3.50;3.50;;;;;23.70;44.69;101092.41;5076827;27;45687;-58
2021/07/10 10:26:59;;;;;;;;;2.00;2.00;;;;;23.71;44.96;101096.72;5076486;28;45250;-59
2021/07/10 10:29:26;;;;;;;;;4.00;4.00;;;;;23.70;44.65;101109.13;5076653;28;45223;-58
2021/07/10 10:31:52;;;;;;;;;3.25;3.25;;;;;23.72;44.95;101107.22;5076165;28;46167;-56
2021/07/10 10:34:18;;;;;;;;;2.25;2.25;;;;;23.69;44.82;101088.91;5076186;28;45330;-58
2021/07/10 10:36:48;;;;;;;;;2.25;2.25;;;;;23.73;44.65;101101.00;5073524;28;45453;-57
2021/07/10 10:39:16;;;;;;;;;3.50;3.00;;;;;23.73;44.99;101092.19;5076433;27;45515;-55
2021/07/10 10:41:46;;;;;;;;;5.25;4.00;;;;;23.73;45.18;101090.41;5079424;27;45539;-54
2021/07/10 10:44:12;;;;;;;;;4.00;2.50;;;;;23.74;44.70;101088.59;5079172;28;45244;-49
2021/07/10 10:46:49;;;;;;;;;3.00;3.00;;;;;23.76;44.63;101076.13;5079572;27;45370;-53
2021/07/10 10:49:35;;;;;;;;;2.00;2.00;;;;;23.77;44.83;101080.47;5079977;27;45619;-53
2021/07/10 10:52:29;;;;;;;;;4.25;4.25;;;;;23.79;44.66;101086.50;5079941;28;46168;-52
2021/07/10 10:55:10;;;;;;;;;4.00;4.00;;;;;23.80;44.78;101082.06;5079806;28;45398;-50
2021/07/10 10:57:49;;;;;;;;;2.25;2.25;;;;;23.78;44.58;101075.06;5078991;27;45314;-50
2021/07/10 11:00:28;;;;;;;;;2.75;2.75;;;;;23.81;44.41;101075.81;5079789;28;45514;-54
2021/07/10 11:02:57;;;;;;;;;4.75;4.75;;;;;23.82;44.78;101069.56;5079543;27;45999;-53
2021/07/10 11:05:31;;;;;;;;;4.00;4.00;;;;;23.82;44.52;101070.41;5079391;27;45247;-50
2021/07/10 11:08:21;;;;;;;;;4.25;4.25;;;;;23.83;44.83;101072.09;5079573;27;45339;-51
2021/07/10 11:10:52;;;;;;;;;2.50;2.50;;;;;23.83;44.87;101068.63;5078424;28;45490;-51
2021/07/10 11:13:37;;;;;;;;;4.00;4.00;;;;;23.83;44.99;101071.28;5079470;27;46355;-51
2021/07/10 11:16:20;;;;;;;;;6.25;4.00;;;;;23.85;44.53;101079.97;5079652;28;45239;-49
2021/07/10 11:18:45;;;;;;;;;3.00;3.00;;;;;23.85;45.09;101074.69;5079628;28;45393;-52
2021/07/10 11:21:11;;;;;;;;;4.75;4.75;;;;;23.85;44.71;101080.81;5079595;28;45625;-53
2021/07/10 11:23:36;;;;;;;;;3.75;3.75;;;;;23.85;44.97;101072.88;5079510;28;45347;-56
2021/07/10 11:26:15;;;;;;;;;6.00;4.00;;;;;23.86;44.91;101071.09;5079497;28;45377;-53